createdAt,value
2023-05-13T00:02:10.412Z,97952.63
2023-05-13T00:04:42.684Z,97965.31
2023-05-13T00:07:14.686Z,97959.09
2023-05-13T00:09:46.853Z,97971.94
2023-05-13T00:12:19.989Z,97964.00
2023-05-13T00:14:51.504Z,97966.50
2023-05-13T00:17:23.498Z,97974.69
2023-05-13T00:19:54.572Z,97981.63
2023-05-13T00:22:25.397Z,97991.59
2023-05-13T00:24:57.149Z,98008.22
2023-05-13T00:27:28.873Z,98059.19
2023-05-13T00:30:02.354Z,98060.28
2023-05-13T00:32:35.385Z,98107.28
2023-05-13T00:35:06.126Z,98117.13
2023-05-13T00:37:37.395Z,98111.00
2023-05-13T00:40:17.840Z,98119.03
2023-05-13T00:42:50.936Z,98118.44
2023-05-13T00:45:24.553Z,98104.69
2023-05-13T00:47:57.734Z,98095.31
2023-05-13T00:50:27.295Z,98064.31
2023-05-13T00:52:58.709Z,98067.59
2023-05-13T00:55:28.077Z,98045.25
2023-05-13T00:57:57.041Z,98071.13
2023-05-13T01:00:26.871Z,98067.00
2023-05-13T01:03:07.643Z,98051.41
2023-05-13T01:06:11.950Z,98011.00
2023-05-13T01:08:41.189Z,97895.91
2023-05-13T01:11:17.902Z,97782.28
2023-05-13T01:13:50.630Z,97754.75
2023-05-13T01:16:56.956Z,97745.16
2023-05-13T01:19:48.669Z,97767.72
2023-05-13T01:22:18.139Z,97775.09
2023-05-13T01:24:47.337Z,97789.84
2023-05-13T01:27:16.750Z,97806.44
2023-05-13T01:29:46.957Z,97823.13
2023-05-13T01:32:22.077Z,97839.00
2023-05-13T01:34:53.680Z,97857.94
2023-05-13T01:37:23.448Z,97875.50
2023-05-13T01:39:53.551Z,97917.88
2023-05-13T01:42:24.304Z,97943.22
2023-05-13T01:44:53.499Z,97942.66
2023-05-13T01:47:23.330Z,97922.47
2023-05-13T01:49:52.848Z,97910.91
2023-05-13T01:52:22.038Z,97905.91
2023-05-13T01:54:51.408Z,97911.47
2023-05-13T01:57:22.098Z,97907.31
2023-05-13T01:59:51.329Z,97910.75
2023-05-13T02:02:20.482Z,97924.72
2023-05-13T02:04:50.336Z,97936.25
2023-05-13T02:07:19.422Z,97941.16
2023-05-13T02:09:49.637Z,97947.97
2023-05-13T02:12:18.851Z,97952.84
2023-05-13T02:14:47.737Z,97945.63
2023-05-13T02:17:17.162Z,97952.44
2023-05-13T02:19:46.320Z,97950.63
2023-05-13T02:22:17.389Z,97955.50
2023-05-13T02:24:46.837Z,97960.53
2023-05-13T02:27:17.626Z,97963.31
2023-05-13T02:29:47.241Z,97954.81
2023-05-13T02:32:16.327Z,97957.72
2023-05-13T02:34:46.300Z,97951.91
2023-05-13T02:37:15.609Z,97949.66
2023-05-13T02:39:52.925Z,97958.84
2023-05-13T02:42:22.163Z,97957.72
2023-05-13T02:44:51.284Z,97965.13
2023-05-13T02:47:21.406Z,97966.50
2023-05-13T02:49:51.019Z,97967.59
2023-05-13T02:52:20.273Z,97965.63
2023-05-13T02:54:49.380Z,97964.34
2023-05-13T02:57:19.354Z,97976.19
2023-05-13T02:59:48.311Z,97977.78
2023-05-13T03:02:17.535Z,97986.69
2023-05-13T03:04:46.661Z,97988.63
2023-05-13T03:07:16.280Z,97992.78
2023-05-13T03:09:45.226Z,97994.25
2023-05-13T03:12:14.586Z,97996.28
2023-05-13T03:14:45.346Z,98002.63
2023-05-13T03:17:14.702Z,97998.53
2023-05-13T03:19:43.623Z,98001.25
2023-05-13T03:22:12.715Z,98003.94
2023-05-13T03:24:42.672Z,98005.38
2023-05-13T03:27:12.703Z,98009.13
2023-05-13T03:29:42.166Z,98006.31
2023-05-13T03:32:11.596Z,98011.63
2023-05-13T03:34:40.885Z,98016.72
2023-05-13T03:37:10.832Z,98012.94
2023-05-13T03:39:39.884Z,98013.88
2023-05-13T03:42:08.996Z,98008.84
2023-05-13T03:44:38.868Z,98017.19
2023-05-13T03:47:08.401Z,98011.41
2023-05-13T03:49:38.024Z,98013.38
2023-05-13T03:52:10.389Z,98020.66
2023-05-13T03:54:39.671Z,98015.78
2023-05-13T03:57:09.226Z,98013.44
2023-05-13T03:59:38.545Z,98011.78
2023-05-13T04:02:07.528Z,98014.78
2023-05-13T04:04:36.967Z,98015.56
2023-05-13T04:07:06.462Z,98016.66
2023-05-13T04:09:35.510Z,98012.53
2023-05-13T04:12:04.632Z,98019.50
2023-05-13T04:14:33.770Z,98030.91
2023-05-13T04:17:02.799Z,98023.13
2023-05-13T04:19:32.008Z,98029.16
2023-05-13T04:22:00.981Z,98028.22
2023-05-13T04:24:30.109Z,98020.59
2023-05-13T04:27:00.745Z,98030.06
2023-05-13T04:29:31.668Z,98025.75
2023-05-13T04:32:00.998Z,98025.91
2023-05-13T04:34:30.053Z,98024.91
2023-05-13T04:36:59.298Z,98026.94
2023-05-13T04:39:28.228Z,98029.22
2023-05-13T04:41:57.408Z,98034.66
2023-05-13T04:44:26.942Z,98031.31
2023-05-13T04:46:55.990Z,98040.50
2023-05-13T04:49:24.875Z,98034.75
2023-05-13T04:51:55.168Z,98040.38
2023-05-13T04:54:25.611Z,98033.72
2023-05-13T04:56:54.571Z,98025.50
2023-05-13T04:59:24.076Z,98033.53
2023-05-13T05:01:53.316Z,98035.00
2023-05-13T05:04:22.364Z,98032.75
2023-05-13T05:06:52.362Z,98034.47
2023-05-13T05:09:21.405Z,98032.75
2023-05-13T05:11:52.779Z,98030.56
2023-05-13T05:14:24.263Z,98036.06
2023-05-13T05:16:53.556Z,98043.25
2023-05-13T05:19:24.973Z,98032.84
2023-05-13T05:21:56.391Z,98036.69
2023-05-13T05:24:25.619Z,98040.03
2023-05-13T05:26:54.967Z,98036.75
2023-05-13T05:29:24.319Z,98040.78
2023-05-13T05:31:53.463Z,98042.41
2023-05-13T05:34:22.818Z,98048.41
2023-05-13T05:36:52.053Z,98041.06
2023-05-13T05:39:22.189Z,98042.03
2023-05-13T05:41:51.940Z,98037.69
2023-05-13T05:44:21.089Z,98037.41
2023-05-13T05:46:50.327Z,98041.00
2023-05-13T05:49:19.155Z,98039.53
2023-05-13T05:51:48.576Z,98033.78
2023-05-13T05:54:17.604Z,98036.00
2023-05-13T05:56:46.636Z,98029.84
2023-05-13T05:59:15.625Z,98023.59
2023-05-13T06:01:44.950Z,98023.44
2023-05-13T06:04:13.843Z,98023.03
2023-05-13T06:06:43.385Z,98030.63
2023-05-13T06:09:12.455Z,98024.75
2023-05-13T06:11:41.806Z,98021.81
2023-05-13T06:14:11.775Z,98018.13
2023-05-13T06:16:40.787Z,98020.13
2023-05-13T06:19:09.873Z,98023.34
2023-05-13T06:21:39.112Z,98012.63
2023-05-13T06:24:08.447Z,98009.16
2023-05-13T06:26:37.688Z,98006.13
2023-05-13T06:29:07.645Z,98001.94
2023-05-13T06:31:36.835Z,98002.25
2023-05-13T06:34:06.121Z,98004.91
2023-05-13T06:36:35.526Z,98004.75
2023-05-13T06:39:07.385Z,98001.22
2023-05-13T06:41:38.863Z,97999.25
2023-05-13T06:44:12.441Z,97989.47
2023-05-13T06:46:46.415Z,97989.38
2023-05-13T06:49:15.665Z,97985.78
2023-05-13T06:51:44.638Z,97985.09
2023-05-13T06:54:13.744Z,97982.47
2023-05-13T06:56:42.864Z,97984.88
2023-05-13T06:59:12.993Z,97978.78
2023-05-13T07:01:43.297Z,97980.72
2023-05-13T07:04:12.550Z,97976.25
2023-05-13T07:06:41.776Z,97979.31
2023-05-13T07:09:10.907Z,97968.13
2023-05-13T07:11:40.270Z,97967.00
2023-05-13T07:14:09.115Z,97962.16
2023-05-13T07:16:38.194Z,97965.16
2023-05-13T07:19:07.176Z,97951.53
2023-05-13T07:21:36.919Z,97944.16
2023-05-13T07:24:06.528Z,97944.94
2023-05-13T07:26:37.366Z,97940.78
2023-05-13T07:29:07.292Z,97936.22
2023-05-13T07:31:41.978Z,97939.00
2023-05-13T07:34:17.642Z,97932.31
2023-05-13T07:36:49.809Z,97931.81
2023-05-13T07:39:21.927Z,97921.56
2023-05-13T07:41:51.163Z,97926.34
2023-05-13T07:44:22.071Z,97923.63
2023-05-13T07:46:54.975Z,97922.44
2023-05-13T07:49:29.567Z,97912.47
2023-05-13T07:52:01.299Z,97915.16
2023-05-13T07:54:32.301Z,97913.13
2023-05-13T07:57:03.066Z,97909.97
2023-05-13T07:59:34.148Z,97902.78
2023-05-13T08:02:03.422Z,97909.13
2023-05-13T08:04:34.900Z,97903.47
2023-05-13T08:07:04.220Z,97903.84
2023-05-13T08:09:33.086Z,97891.75
2023-05-13T08:12:02.125Z,97892.91
2023-05-13T08:14:31.424Z,97892.38
2023-05-13T08:17:00.656Z,97885.34
2023-05-13T08:19:29.637Z,97880.41
2023-05-13T08:21:58.793Z,97888.06
2023-05-13T08:24:28.250Z,97871.31
2023-05-13T08:26:58.208Z,97875.00
2023-05-13T08:29:27.234Z,97866.53
2023-05-13T08:31:56.271Z,97868.81
2023-05-13T08:34:25.434Z,97862.56
2023-05-13T08:36:54.403Z,97860.53
2023-05-13T08:39:23.748Z,97851.81
2023-05-13T08:41:57.941Z,97846.44
2023-05-13T08:44:30.214Z,97846.44
2023-05-13T08:47:31.630Z,97849.91
2023-05-13T08:50:01.150Z,97846.22
2023-05-13T08:52:30.271Z,97832.78
2023-05-13T08:55:05.636Z,97837.53
2023-05-13T08:57:34.857Z,97830.53
2023-05-13T09:00:05.822Z,97828.00
2023-05-13T09:02:36.256Z,97831.72
2023-05-13T09:05:09.692Z,97826.97
2023-05-13T09:07:40.290Z,97810.38
2023-05-13T09:10:11.321Z,97811.03
2023-05-13T09:12:56.697Z,97797.69
2023-05-13T09:15:28.547Z,97797.38
2023-05-13T09:18:04.898Z,97795.53
2023-05-13T09:20:34.909Z,97801.78
2023-05-13T09:23:04.955Z,97794.72
2023-05-13T09:25:34.602Z,97789.75
2023-05-13T09:28:06.080Z,97788.50
2023-05-13T09:30:39.635Z,97778.13
2023-05-13T09:33:16.496Z,97773.81
2023-05-13T09:35:50.510Z,97773.19
2023-05-13T09:38:26.189Z,97772.38
2023-05-13T09:40:59.144Z,97768.19
2023-05-13T09:43:33.302Z,97763.47
2023-05-13T09:46:04.758Z,97762.88
2023-05-13T09:48:35.377Z,97759.94
2023-05-13T09:51:04.569Z,97759.75
2023-05-13T09:56:33.135Z,97760.38
2023-05-13T09:59:08.684Z,97752.13
2023-05-13T10:01:40.757Z,97745.09
2023-05-13T10:04:10.290Z,97742.41
2023-05-13T10:06:39.989Z,97733.50
2023-05-13T10:09:12.237Z,97736.59
2023-05-13T10:11:45.431Z,97736.19
2023-05-13T10:14:15.278Z,97724.81
2023-05-13T10:16:44.947Z,97731.84
2023-05-13T10:19:14.586Z,97717.78
2023-05-13T10:21:44.012Z,97715.31
2023-05-13T10:24:14.908Z,97710.56
2023-05-13T10:26:45.460Z,97704.75
2023-05-13T10:29:15.293Z,97705.78
2023-05-13T10:31:46.036Z,97702.69
2023-05-13T10:34:15.335Z,97694.22
2023-05-13T10:37:15.389Z,97700.41
2023-05-13T10:40:19.773Z,97693.81
2023-05-13T10:43:18.156Z,97694.84
2023-05-13T10:46:07.981Z,97687.16
2023-05-13T10:48:48.760Z,97680.34
2023-05-13T10:51:23.764Z,97677.44
2023-05-13T10:53:59.696Z,97678.47
2023-05-13T10:56:30.015Z,97675.56
2023-05-13T10:59:06.810Z,97668.13
2023-05-13T11:01:48.167Z,97665.66
2023-05-13T11:04:19.531Z,97675.16
2023-05-13T11:06:50.780Z,97661.13
2023-05-13T11:09:25.352Z,97659.88
2023-05-13T11:11:55.989Z,97654.91
2023-05-13T11:14:26.960Z,97653.66
2023-05-13T11:17:10.765Z,97652.03
2023-05-13T11:19:47.860Z,97649.97
2023-05-13T11:22:18.353Z,97656.31
2023-05-13T11:25:05.017Z,97652.44
2023-05-13T11:27:44.964Z,97655.34
2023-05-13T11:30:28.945Z,97645.00
2023-05-13T11:33:00.579Z,97649.06
2023-05-13T11:35:34.188Z,97637.34
2023-05-13T11:38:05.385Z,97639.00
2023-05-13T11:40:36.506Z,97647.00
2023-05-13T11:43:07.250Z,97643.47
2023-05-13T11:45:42.157Z,97645.31
2023-05-13T11:48:25.147Z,97649.47
2023-05-13T11:50:57.999Z,97647.78
2023-05-13T11:53:27.195Z,97646.31
2023-05-13T11:55:56.589Z,97643.38
2023-05-13T11:58:25.833Z,97632.41
2023-05-13T12:00:56.408Z,97633.34
2023-05-13T12:03:25.834Z,97638.25
2023-05-13T12:06:03.212Z,97634.53
2023-05-13T12:08:32.844Z,97633.59
2023-05-13T12:11:02.027Z,97630.66
2023-05-13T12:13:31.243Z,97632.78
2023-05-13T12:16:00.444Z,97641.81
2023-05-13T12:18:29.466Z,97630.88
2023-05-13T12:20:58.635Z,97639.09
2023-05-13T12:23:27.904Z,97635.06
2023-05-13T12:25:56.802Z,97634.66
2023-05-13T12:28:27.804Z,97633.00
2023-05-13T12:31:01.429Z,97632.78
2023-05-13T12:33:35.602Z,97631.59
2023-05-13T12:36:21.609Z,97629.31
2023-05-13T12:39:05.347Z,97627.78
2023-05-13T12:41:42.563Z,97632.53
2023-05-13T12:44:15.390Z,97627.00
2023-05-13T12:46:55.491Z,97637.84
2023-05-13T12:49:24.623Z,97641.75
2023-05-13T12:51:53.593Z,97628.56
2023-05-13T12:58:21.977Z,97635.19
2023-05-13T13:00:51.256Z,97633.56
2023-05-13T13:03:21.775Z,97639.84
2023-05-13T13:05:53.536Z,97630.47
2023-05-13T13:08:22.703Z,97631.75
2023-05-13T13:10:52.052Z,97636.03
2023-05-13T13:13:21.101Z,97639.28
2023-05-13T13:16:30.146Z,97640.28
2023-05-13T13:19:01.924Z,97629.19
2023-05-13T13:21:31.017Z,97632.31
2023-05-13T13:23:59.641Z,97631.94
2023-05-13T13:26:28.703Z,97631.47
2023-05-13T13:28:57.379Z,97632.31
2023-05-13T13:31:26.229Z,97624.78
2023-05-13T13:33:55.052Z,97635.59
2023-05-13T13:36:23.917Z,97630.25
2023-05-13T13:38:52.628Z,97621.00
2023-05-13T13:41:22.064Z,97628.84
2023-05-13T13:43:50.788Z,97627.28
2023-05-13T13:46:19.686Z,97616.13
2023-05-13T13:48:48.496Z,97619.41
2023-05-13T13:51:17.383Z,97611.31
2023-05-13T13:53:46.084Z,97625.88
2023-05-13T13:56:14.984Z,97622.78
2023-05-13T13:58:43.546Z,97630.72
2023-05-13T14:01:12.562Z,97636.47
2023-05-13T14:03:41.436Z,97634.22
2023-05-13T14:06:10.384Z,97639.31
2023-05-13T14:08:39.223Z,97638.31
2023-05-13T14:11:08.272Z,97650.22
2023-05-13T14:13:36.947Z,97644.59
2023-05-13T14:16:06.550Z,97649.47
2023-05-13T14:18:35.497Z,97644.16
2023-05-13T14:21:04.460Z,97642.53
2023-05-13T14:23:33.093Z,97648.69
2023-05-13T14:26:02.097Z,97645.94
2023-05-13T14:28:30.700Z,97655.13
2023-05-13T14:30:59.828Z,97644.09
2023-05-13T14:33:28.541Z,97653.00
2023-05-13T14:35:57.504Z,97646.03
2023-05-13T14:38:28.462Z,97647.91
2023-05-13T14:40:57.597Z,97654.78
2023-05-13T14:51:13.544Z,97684.78
2023-05-13T14:53:44.188Z,97678.31
2023-05-13T14:56:13.559Z,97683.84
2023-05-13T14:58:42.780Z,97688.19
2023-05-13T15:01:12.618Z,97689.66
2023-05-13T15:03:42.468Z,97697.00
2023-05-13T15:06:12.644Z,97708.00
2023-05-13T15:08:42.428Z,97706.81
2023-05-13T15:11:11.675Z,97710.66
2023-05-13T15:13:41.394Z,97721.13
2023-05-13T15:16:11.041Z,97727.97
2023-05-13T15:18:40.339Z,97727.28
2023-05-13T15:21:09.348Z,97738.25
2023-05-13T15:23:38.668Z,97736.78
2023-05-13T15:26:07.617Z,97739.09
2023-05-13T15:29:23.241Z,97735.44
2023-05-13T15:31:52.400Z,97740.44
2023-05-13T15:34:21.456Z,97742.59
2023-05-13T15:36:50.699Z,97741.75
2023-05-13T15:39:19.656Z,97744.94
2023-05-13T15:41:49.857Z,97744.44
2023-05-13T15:44:19.035Z,97750.38
2023-05-13T15:46:49.643Z,97756.41
2023-05-13T15:49:19.193Z,97758.72
2023-05-13T15:51:48.064Z,97763.88
2023-05-13T15:54:17.157Z,97768.19
2023-05-13T15:56:46.138Z,97770.19
2023-05-13T15:59:15.243Z,97772.47
2023-05-13T16:01:45.859Z,97784.25
2023-05-13T16:04:15.267Z,97783.22
2023-05-13T16:06:44.279Z,97782.84
2023-05-13T16:09:13.759Z,97792.53
2023-05-13T16:11:44.548Z,97783.03
2023-05-13T16:14:13.679Z,97789.34
2023-05-13T16:16:42.788Z,97791.66
2023-05-13T16:19:12.096Z,97785.19
2023-05-13T16:21:43.693Z,97781.34
2023-05-13T16:24:12.957Z,97777.31
2023-05-13T16:26:42.079Z,97780.34
2023-05-13T16:29:12.779Z,97780.22
2023-05-13T16:31:42.271Z,97775.69
2023-05-13T16:34:11.334Z,97789.69
2023-05-13T16:36:40.361Z,97788.06
2023-05-13T16:39:09.453Z,97793.84
2023-05-13T16:41:38.808Z,97795.97
2023-05-13T16:44:07.749Z,97799.84
2023-05-13T16:46:36.986Z,97793.91
2023-05-13T17:10:18.220Z,97794.63
2023-05-13T17:12:47.665Z,97788.38
2023-05-13T17:15:17.671Z,97786.34
2023-05-13T17:49:51.511Z,97786.63
2023-05-13T17:52:29.647Z,97795.75
2023-05-13T17:55:03.406Z,97827.25
2023-05-13T17:57:36.215Z,97852.94
2023-05-13T18:00:14.150Z,97853.78
2023-05-13T18:02:47.302Z,97860.66
2023-05-13T18:05:20.254Z,97857.06
2023-05-13T18:07:54.075Z,97858.69
2023-05-13T18:10:28.323Z,97852.38
2023-05-13T18:13:06.415Z,97857.81
2023-05-13T18:15:42.911Z,97854.31
2023-05-13T18:18:23.763Z,97859.31
2023-05-13T18:21:07.528Z,97857.97
2023-05-13T18:23:42.256Z,97864.91
2023-05-13T18:26:25.066Z,97867.81
2023-05-13T18:29:04.333Z,97876.03
2023-05-13T18:31:43.196Z,97881.69
2023-05-13T18:34:19.007Z,97872.28
2023-05-13T18:36:54.252Z,97883.53
2023-05-13T18:39:24.865Z,97896.31
2023-05-13T18:41:56.483Z,97891.59
2023-05-13T18:44:26.925Z,97899.16
2023-05-13T18:46:59.629Z,97914.16
2023-05-13T18:49:35.046Z,97926.81
2023-05-13T18:52:04.830Z,97944.78
2023-05-13T18:54:38.528Z,97957.41
2023-05-13T18:57:09.011Z,97933.97
2023-05-13T18:59:39.165Z,97925.88
2023-05-13T19:02:10.850Z,97952.66
2023-05-13T19:04:40.847Z,97942.91
2023-05-13T19:07:10.697Z,97918.63
2023-05-13T19:09:40.827Z,97878.31
2023-05-13T19:12:11.302Z,97880.00
2023-05-13T19:14:48.771Z,97893.72
2023-05-13T19:17:24.176Z,97885.41
2023-05-13T19:19:54.276Z,97857.06
2023-05-13T19:22:28.084Z,97836.59
2023-05-13T19:24:59.179Z,97834.22
2023-05-13T19:27:30.283Z,97844.28
2023-05-13T19:30:02.739Z,97828.44
2023-05-13T19:32:32.856Z,97805.47
2023-05-13T19:35:02.505Z,97802.41
2023-05-13T19:37:41.818Z,97791.81
2023-05-13T19:40:12.873Z,97797.22
2023-05-13T19:42:42.846Z,97798.44
2023-05-13T19:45:16.906Z,97779.69
2023-05-13T19:47:50.087Z,97777.22
2023-05-13T19:50:22.200Z,97775.97
2023-05-13T19:52:54.464Z,97792.66
2023-05-13T19:55:26.333Z,97772.63
2023-05-13T19:57:56.561Z,97770.16
2023-05-13T20:00:27.486Z,97787.25
2023-05-13T20:03:02.937Z,97785.47
2023-05-13T20:05:34.050Z,97784.94
2023-05-13T20:08:06.503Z,97768.25
2023-05-13T20:10:38.434Z,97758.50
2023-05-13T23:30:15.456Z,97759.97
2023-05-13T23:32:44.918Z,97770.47
2023-05-13T23:35:14.247Z,97767.66
2023-05-13T23:37:43.394Z,97776.19
2023-05-13T23:40:12.925Z,97787.59
2023-05-13T23:42:42.808Z,97794.00
2023-05-13T23:45:12.248Z,97810.09
2023-05-13T23:47:41.232Z,97814.22
2023-05-13T23:50:11.246Z,97824.19
2023-05-13T23:52:40.395Z,97837.53
2023-05-13T23:55:09.642Z,97852.38
2023-05-13T23:57:38.771Z,97850.84
